GLO1130 SBSP-SBFI
Flight info
| Callsign | GLO1130 |
|---|---|
| Flight time | 1h 18m |
| Altitude | 34000 |
| Route | ASETA UZ152 UPORU |
| Aircraft | B737/M-SDFGIKRWY/LB1 |
Departure
| Time | 2026-04-24 23:53 |
|---|---|
| Airport | Congonhas–Deputado Freitas Nobre Airport (SBSP) |
Arrival
| Time | 2026-04-25 01:12 |
|---|---|
| Airport | Cataratas International Airport (SBFI) |
| Time | Latitude | Longitude | Altitude | Speed | Heading |
|---|---|---|---|---|---|
| 2026-04-24 23:33 | -23.62981 | -46.65875 | 2599 ft | 0 kts | 328° |
| 2026-04-24 23:41 | -23.62993 | -46.65867 | 2599 ft | 2 kts | 327° |
| 2026-04-24 23:42 | -23.63006 | -46.65858 | 2599 ft | 2 kts | 328° |
| 2026-04-24 23:42 | -23.63021 | -46.65852 | 2599 ft | 2 kts | 71° |
| 2026-04-24 23:42 | -23.63027 | -46.65863 | 2599 ft | 0 kts | 59° |
| 2026-04-24 23:46 | -23.63025 | -46.65859 | 2599 ft | 3 kts | 59° |
| 2026-04-24 23:46 | -23.63008 | -46.65831 | 2599 ft | 5 kts | 57° |
| 2026-04-24 23:47 | -23.62990 | -46.65801 | 2599 ft | 5 kts | 57° |
| 2026-04-24 23:47 | -23.62979 | -46.65783 | 2599 ft | 0 kts | 57° |
| 2026-04-24 23:47 | -23.62977 | -46.65779 | 2599 ft | 2 kts | 57° |
| 2026-04-24 23:47 | -23.62967 | -46.65762 | 2599 ft | 3 kts | 57° |
| 2026-04-24 23:48 | -23.62955 | -46.65741 | 2599 ft | 3 kts | 58° |
| 2026-04-24 23:48 | -23.62937 | -46.65710 | 2600 ft | 9 kts | 57° |
| 2026-04-24 23:48 | -23.62901 | -46.65649 | 2600 ft | 10 kts | 57° |
| 2026-04-24 23:48 | -23.62850 | -46.65627 | 2602 ft | 9 kts | 330° |
| 2026-04-24 23:49 | -23.62795 | -46.65665 | 2602 ft | 9 kts | 328° |
| 2026-04-24 23:49 | -23.62742 | -46.65702 | 2601 ft | 9 kts | 328° |
| 2026-04-24 23:49 | -23.62690 | -46.65738 | 2601 ft | 9 kts | 327° |
| 2026-04-24 23:49 | -23.62640 | -46.65772 | 2601 ft | 9 kts | 327° |
| 2026-04-24 23:50 | -23.62591 | -46.65807 | 2601 ft | 9 kts | 327° |
| 2026-04-24 23:50 | -23.62530 | -46.65849 | 2601 ft | 13 kts | 328° |
| 2026-04-24 23:50 | -23.62444 | -46.65908 | 2600 ft | 15 kts | 328° |
| 2026-04-24 23:50 | -23.62355 | -46.65970 | 2599 ft | 15 kts | 327° |
| 2026-04-24 23:51 | -23.62270 | -46.66029 | 2599 ft | 14 kts | 327° |
| 2026-04-24 23:51 | -23.62185 | -46.66079 | 2591 ft | 14 kts | 326° |
| 2026-04-24 23:51 | -23.62107 | -46.66133 | 2588 ft | 13 kts | 334° |
| 2026-04-24 23:51 | -23.62036 | -46.66097 | 2595 ft | 14 kts | 83° |
| 2026-04-24 23:52 | -23.62057 | -46.66069 | 2595 ft | 0 kts | 148° |
| 2026-04-24 23:52 | -23.62220 | -46.65957 | 2593 ft | 75 kts | 147° |
| 2026-04-24 23:53 | -23.62923 | -46.65469 | 2631 ft | 160 kts | 147° |
| 2026-04-24 23:53 | -23.63913 | -46.64799 | 3562 ft | 165 kts | 150° |
| 2026-04-24 23:53 | -23.64967 | -46.64243 | 4605 ft | 181 kts | 166° |
| 2026-04-24 23:53 | -23.66321 | -46.64221 | 5183 ft | 208 kts | 195° |
| 2026-04-24 23:54 | -23.67839 | -46.64518 | 5462 ft | 238 kts | 183° |
| 2026-04-24 23:54 | -23.69601 | -46.64587 | 5730 ft | 268 kts | 183° |
| 2026-04-24 23:54 | -23.71512 | -46.64676 | 6484 ft | 280 kts | 183° |
| 2026-04-24 23:54 | -23.73450 | -46.64758 | 7180 ft | 284 kts | 183° |
| 2026-04-24 23:55 | -23.75402 | -46.65198 | 7479 ft | 285 kts | 207° |
| 2026-04-24 23:55 | -23.76921 | -46.66509 | 7495 ft | 284 kts | 234° |
| 2026-04-24 23:55 | -23.77740 | -46.68436 | 7502 ft | 281 kts | 259° |
| 2026-04-24 23:55 | -23.77767 | -46.70554 | 7543 ft | 281 kts | 275° |
| 2026-04-24 23:56 | -23.78127 | -46.72644 | 8116 ft | 286 kts | 242° |
| 2026-04-24 23:56 | -23.79000 | -46.74558 | 9160 ft | 286 kts | 258° |
| 2026-04-24 23:56 | -23.78957 | -46.76700 | 10121 ft | 286 kts | 285° |
| 2026-04-24 23:56 | -23.78341 | -46.78784 | 11011 ft | 292 kts | 289° |
| 2026-04-24 23:57 | -23.77661 | -46.80892 | 11855 ft | 297 kts | 289° |
| 2026-04-24 23:57 | -23.76977 | -46.83043 | 12711 ft | 302 kts | 289° |
| 2026-04-24 23:57 | -23.76311 | -46.85220 | 13627 ft | 304 kts | 288° |
| 2026-04-24 23:57 | -23.75668 | -46.87395 | 14520 ft | 306 kts | 288° |
| 2026-04-24 23:58 | -23.75028 | -46.89624 | 15391 ft | 310 kts | 287° |
| 2026-04-24 23:58 | -23.74393 | -46.91881 | 16293 ft | 312 kts | 287° |
| 2026-04-24 23:58 | -23.73798 | -46.94028 | 17109 ft | 315 kts | 287° |
| 2026-04-24 23:58 | -23.73165 | -46.96332 | 17970 ft | 317 kts | 286° |
| 2026-04-24 23:59 | -23.72533 | -46.98645 | 18797 ft | 320 kts | 286° |
| 2026-04-24 23:59 | -23.71895 | -47.00989 | 19556 ft | 324 kts | 286° |
| 2026-04-24 23:59 | -23.71252 | -47.03360 | 20317 ft | 328 kts | 285° |
| 2026-04-24 23:59 | -23.70610 | -47.05726 | 21066 ft | 331 kts | 285° |
| 2026-04-25 00:00 | -23.69955 | -47.08141 | 21810 ft | 334 kts | 285° |
| 2026-04-25 00:00 | -23.69293 | -47.10587 | 22520 ft | 337 kts | 285° |
| 2026-04-25 00:00 | -23.68625 | -47.13049 | 23208 ft | 340 kts | 284° |
| 2026-04-25 00:00 | -23.67950 | -47.15542 | 23874 ft | 344 kts | 284° |
| 2026-04-25 00:01 | -23.67269 | -47.18050 | 24531 ft | 347 kts | 285° |
| 2026-04-25 00:01 | -23.66578 | -47.20596 | 25106 ft | 353 kts | 285° |
| 2026-04-25 00:01 | -23.65879 | -47.23173 | 25754 ft | 355 kts | 284° |
| 2026-04-25 00:01 | -23.65173 | -47.25763 | 26417 ft | 357 kts | 284° |
| 2026-04-25 00:02 | -23.64471 | -47.28338 | 27304 ft | 351 kts | 284° |
| 2026-04-25 00:02 | -23.63789 | -47.30836 | 28141 ft | 347 kts | 284° |
| 2026-04-25 00:02 | -23.63103 | -47.33350 | 28904 ft | 345 kts | 284° |
| 2026-04-25 00:02 | -23.62422 | -47.35846 | 29627 ft | 343 kts | 284° |
| 2026-04-25 00:03 | -23.61744 | -47.38332 | 30326 ft | 341 kts | 284° |
| 2026-04-25 00:03 | -23.61069 | -47.40803 | 30920 ft | 343 kts | 284° |
| 2026-04-25 00:03 | -23.60374 | -47.43353 | 30990 ft | 358 kts | 284° |
| 2026-04-25 00:03 | -23.59651 | -47.46006 | 31099 ft | 372 kts | 284° |
| 2026-04-25 00:04 | -23.58898 | -47.48763 | 31196 ft | 386 kts | 284° |
| 2026-04-25 00:04 | -23.58119 | -47.51613 | 31279 ft | 399 kts | 284° |
| 2026-04-25 00:04 | -23.57326 | -47.54507 | 31351 ft | 410 kts | 284° |
| 2026-04-25 00:04 | -23.56496 | -47.57531 | 31416 ft | 421 kts | 284° |
| 2026-04-25 00:05 | -23.54779 | -47.63775 | 31545 ft | 438 kts | 284° |
| 2026-04-25 00:05 | -23.53899 | -47.66975 | 31734 ft | 443 kts | 284° |
| 2026-04-25 00:05 | -23.53011 | -47.70191 | 32081 ft | 443 kts | 284° |
| 2026-04-25 00:06 | -23.52124 | -47.73401 | 32527 ft | 441 kts | 284° |
| 2026-04-25 00:06 | -23.51243 | -47.76588 | 33079 ft | 437 kts | 284° |
| 2026-04-25 00:06 | -23.50370 | -47.79747 | 33576 ft | 435 kts | 284° |
| 2026-04-25 00:06 | -23.49511 | -47.82855 | 33980 ft | 434 kts | 284° |
| 2026-04-25 00:07 | -23.48640 | -47.86001 | 34349 ft | 434 kts | 284° |
| 2026-04-25 00:07 | -23.47769 | -47.89149 | 34758 ft | 432 kts | 284° |
| 2026-04-25 00:07 | -23.46901 | -47.92275 | 35114 ft | 430 kts | 284° |
| 2026-04-25 00:07 | -23.46041 | -47.95391 | 35371 ft | 430 kts | 284° |
| 2026-04-25 00:08 | -23.45165 | -47.98513 | 35696 ft | 431 kts | 284° |
| 2026-04-25 00:08 | -23.44294 | -48.01629 | 36119 ft | 428 kts | 284° |
| 2026-04-25 00:08 | -23.43440 | -48.04719 | 36513 ft | 426 kts | 284° |
| 2026-04-25 00:08 | -23.42599 | -48.07817 | 36827 ft | 427 kts | 283° |
| 2026-04-25 00:09 | -23.41750 | -48.10892 | 37422 ft | 419 kts | 284° |
| 2026-04-25 00:09 | -23.40897 | -48.13891 | 38063 ft | 412 kts | 284° |
| 2026-04-25 00:09 | -23.40074 | -48.16824 | 38377 ft | 411 kts | 283° |
| 2026-04-25 00:09 | -23.39242 | -48.19806 | 38516 ft | 413 kts | 283° |
| 2026-04-25 00:10 | -23.38406 | -48.22806 | 38645 ft | 416 kts | 283° |
| 2026-04-25 00:10 | -23.37566 | -48.25815 | 38867 ft | 415 kts | 283° |
| 2026-04-25 00:10 | -23.36728 | -48.28813 | 39198 ft | 413 kts | 283° |
| 2026-04-25 00:10 | -23.35892 | -48.31799 | 39425 ft | 412 kts | 283° |
| 2026-04-25 00:11 | -23.35055 | -48.34788 | 39577 ft | 414 kts | 284° |
| 2026-04-25 00:11 | -23.34507 | -48.36773 | 39695 ft | 413 kts | 281° |
| 2026-04-25 00:11 | -23.34091 | -48.40886 | 39956 ft | 408 kts | 266° |
| 2026-04-25 00:11 | -23.34361 | -48.43949 | 40103 ft | 408 kts | 258° |
| 2026-04-25 00:12 | -23.36185 | -48.49745 | 40109 ft | 409 kts | 248° |
| 2026-04-25 00:12 | -23.38363 | -48.55432 | 40117 ft | 406 kts | 248° |
| 2026-04-25 00:13 | -23.40512 | -48.61102 | 40105 ft | 404 kts | 248° |
| 2026-04-25 00:13 | -23.42621 | -48.66757 | 40110 ft | 403 kts | 248° |
| 2026-04-25 00:14 | -23.44712 | -48.72405 | 40109 ft | 402 kts | 249° |
| 2026-04-25 00:14 | -23.46784 | -48.78013 | 40110 ft | 402 kts | 249° |
| 2026-04-25 00:15 | -23.48871 | -48.83666 | 40117 ft | 403 kts | 249° |
| 2026-04-25 00:15 | -23.50960 | -48.89334 | 40113 ft | 404 kts | 249° |
| 2026-04-25 00:16 | -23.53056 | -48.95027 | 40114 ft | 405 kts | 249° |
| 2026-04-25 00:16 | -23.55156 | -49.00736 | 40111 ft | 406 kts | 249° |
| 2026-04-25 00:17 | -23.57258 | -49.06462 | 40116 ft | 407 kts | 249° |
| 2026-04-25 00:17 | -23.59347 | -49.12157 | 40114 ft | 408 kts | 249° |
| 2026-04-25 00:18 | -23.61449 | -49.17898 | 40107 ft | 408 kts | 249° |
| 2026-04-25 00:18 | -23.63540 | -49.23638 | 40111 ft | 407 kts | 249° |
| 2026-04-25 00:19 | -23.65270 | -49.28398 | 40109 ft | 406 kts | 249° |
| 2026-04-25 00:19 | -23.67348 | -49.34120 | 40100 ft | 405 kts | 249° |
| 2026-04-25 00:20 | -23.69753 | -49.40753 | 40093 ft | 404 kts | 249° |
| 2026-04-25 00:20 | -23.71813 | -49.46442 | 40103 ft | 402 kts | 249° |
| 2026-04-25 00:21 | -23.73517 | -49.51152 | 40097 ft | 401 kts | 249° |
| 2026-04-25 00:21 | -23.75561 | -49.56806 | 40101 ft | 400 kts | 249° |
| 2026-04-25 00:22 | -23.77601 | -49.62443 | 40104 ft | 399 kts | 249° |
| 2026-04-25 00:22 | -23.79963 | -49.68983 | 40103 ft | 398 kts | 250° |
| 2026-04-25 00:23 | -23.81662 | -49.73692 | 40101 ft | 397 kts | 250° |
| 2026-04-25 00:23 | -23.83669 | -49.79266 | 40101 ft | 397 kts | 250° |
| 2026-04-25 00:24 | -23.85689 | -49.84883 | 40099 ft | 397 kts | 250° |
| 2026-04-25 00:24 | -23.87709 | -49.90503 | 40116 ft | 399 kts | 250° |
| 2026-04-25 00:25 | -23.89758 | -49.96216 | 40108 ft | 408 kts | 250° |
| 2026-04-25 00:25 | -23.91827 | -50.02019 | 40092 ft | 411 kts | 250° |
| 2026-04-25 00:26 | -23.93898 | -50.07841 | 40091 ft | 411 kts | 250° |
| 2026-04-25 00:26 | -23.95958 | -50.13639 | 40089 ft | 411 kts | 250° |
| 2026-04-25 00:27 | -23.98026 | -50.19467 | 40095 ft | 411 kts | 250° |
| 2026-04-25 00:27 | -24.00089 | -50.25289 | 40085 ft | 410 kts | 250° |
| 2026-04-25 00:28 | -24.02145 | -50.31103 | 40092 ft | 409 kts | 250° |
| 2026-04-25 00:28 | -24.04188 | -50.36907 | 40089 ft | 409 kts | 250° |
| 2026-04-25 00:29 | -24.06214 | -50.42667 | 40095 ft | 408 kts | 250° |
| 2026-04-25 00:29 | -24.08248 | -50.48456 | 40091 ft | 408 kts | 250° |
| 2026-04-25 00:30 | -24.10285 | -50.54254 | 40093 ft | 407 kts | 250° |
| 2026-04-25 00:30 | -24.12315 | -50.60038 | 40093 ft | 407 kts | 250° |
| 2026-04-25 00:31 | -24.14342 | -50.65823 | 40095 ft | 407 kts | 250° |
| 2026-04-25 00:31 | -24.16363 | -50.71602 | 40090 ft | 407 kts | 250° |
| 2026-04-25 00:32 | -24.18368 | -50.77342 | 40091 ft | 406 kts | 250° |
| 2026-04-25 00:32 | -24.20384 | -50.83123 | 40091 ft | 406 kts | 250° |
| 2026-04-25 00:33 | -24.22397 | -50.88901 | 40094 ft | 406 kts | 250° |
| 2026-04-25 00:33 | -24.24407 | -50.94680 | 40092 ft | 406 kts | 250° |
| 2026-04-25 00:34 | -24.26417 | -51.00468 | 40090 ft | 407 kts | 250° |
| 2026-04-25 00:34 | -24.28429 | -51.06267 | 40096 ft | 407 kts | 250° |
| 2026-04-25 00:35 | -24.30425 | -51.12035 | 40089 ft | 408 kts | 251° |
| 2026-04-25 00:35 | -24.32434 | -51.17851 | 40084 ft | 408 kts | 251° |
| 2026-04-25 00:36 | -24.34442 | -51.23675 | 40082 ft | 409 kts | 251° |
| 2026-04-25 00:36 | -24.36452 | -51.29511 | 40060 ft | 409 kts | 251° |
| 2026-04-25 00:37 | -24.38461 | -51.35354 | 40078 ft | 409 kts | 251° |
| 2026-04-25 00:37 | -24.40470 | -51.41204 | 40078 ft | 410 kts | 251° |
| 2026-04-25 00:38 | -24.42475 | -51.47051 | 40064 ft | 410 kts | 251° |
| 2026-04-25 00:38 | -24.44468 | -51.52872 | 40073 ft | 410 kts | 251° |
| 2026-04-25 00:39 | -24.46469 | -51.58723 | 40080 ft | 409 kts | 251° |
| 2026-04-25 00:39 | -24.48470 | -51.64583 | 40074 ft | 410 kts | 251° |
| 2026-04-25 00:40 | -24.50467 | -51.70443 | 40079 ft | 410 kts | 251° |
| 2026-04-25 00:40 | -24.52451 | -51.76272 | 40075 ft | 411 kts | 251° |
| 2026-04-25 00:41 | -24.54448 | -51.82146 | 40081 ft | 410 kts | 251° |
| 2026-04-25 00:41 | -24.56439 | -51.88026 | 40079 ft | 410 kts | 251° |
| 2026-04-25 00:42 | -24.58316 | -51.93942 | 40082 ft | 410 kts | 252° |
| 2026-04-25 00:42 | -24.60138 | -51.99836 | 40065 ft | 410 kts | 252° |
| 2026-04-25 00:43 | -24.61974 | -52.05759 | 40071 ft | 410 kts | 252° |
| 2026-04-25 00:43 | -24.63817 | -52.11679 | 40066 ft | 409 kts | 252° |
| 2026-04-25 00:44 | -24.65662 | -52.17598 | 40078 ft | 409 kts | 252° |
| 2026-04-25 00:44 | -24.67501 | -52.23507 | 40067 ft | 409 kts | 252° |
| 2026-04-25 00:45 | -24.69326 | -52.29375 | 40082 ft | 408 kts | 252° |
| 2026-04-25 00:45 | -24.71158 | -52.35280 | 40072 ft | 408 kts | 253° |
| 2026-04-25 00:46 | -24.72985 | -52.41176 | 40070 ft | 407 kts | 253° |
| 2026-04-25 00:47 | -24.75720 | -52.50021 | 40076 ft | 407 kts | 253° |
| 2026-04-25 00:47 | -24.77526 | -52.55873 | 40077 ft | 406 kts | 253° |
| 2026-04-25 00:48 | -24.79340 | -52.61761 | 40064 ft | 406 kts | 253° |
| 2026-04-25 00:48 | -24.81149 | -52.67641 | 40070 ft | 406 kts | 253° |
| 2026-04-25 00:49 | -24.82957 | -52.73529 | 39775 ft | 411 kts | 253° |
| 2026-04-25 00:49 | -24.83861 | -52.76476 | 39320 ft | 408 kts | 252° |
| 2026-04-25 00:49 | -24.84768 | -52.79436 | 38600 ft | 409 kts | 252° |
| 2026-04-25 00:49 | -24.85665 | -52.82362 | 38495 ft | 394 kts | 252° |
| 2026-04-25 00:50 | -24.86531 | -52.85183 | 38444 ft | 386 kts | 253° |
| 2026-04-25 00:50 | -24.87399 | -52.88023 | 38197 ft | 398 kts | 253° |
| 2026-04-25 00:50 | -24.88293 | -52.90952 | 37987 ft | 408 kts | 253° |
| 2026-04-25 00:50 | -24.89203 | -52.93935 | 37740 ft | 413 kts | 253° |
| 2026-04-25 00:51 | -24.90117 | -52.96932 | 37483 ft | 412 kts | 253° |
| 2026-04-25 00:51 | -24.91014 | -52.99873 | 37231 ft | 411 kts | 253° |
| 2026-04-25 00:51 | -24.91923 | -53.02854 | 36985 ft | 410 kts | 253° |
| 2026-04-25 00:51 | -24.92826 | -53.05822 | 36736 ft | 409 kts | 253° |
| 2026-04-25 00:52 | -24.93732 | -53.08798 | 36489 ft | 409 kts | 253° |
| 2026-04-25 00:52 | -24.94633 | -53.11765 | 36236 ft | 408 kts | 253° |
| 2026-04-25 00:52 | -24.95537 | -53.14740 | 35983 ft | 411 kts | 253° |
| 2026-04-25 00:52 | -24.96451 | -53.17756 | 35746 ft | 419 kts | 253° |
| 2026-04-25 00:53 | -24.97379 | -53.20822 | 35504 ft | 425 kts | 253° |
| 2026-04-25 00:53 | -24.98319 | -53.23924 | 35267 ft | 427 kts | 253° |
| 2026-04-25 00:53 | -24.99258 | -53.27025 | 35009 ft | 427 kts | 254° |
| 2026-04-25 00:53 | -25.00184 | -53.30082 | 34761 ft | 427 kts | 254° |
| 2026-04-25 00:54 | -25.01122 | -53.33186 | 33870 ft | 429 kts | 254° |
| 2026-04-25 00:54 | -25.02064 | -53.36307 | 32998 ft | 429 kts | 254° |
| 2026-04-25 00:54 | -25.03009 | -53.39439 | 32004 ft | 432 kts | 254° |
| 2026-04-25 00:54 | -25.03960 | -53.42593 | 30971 ft | 435 kts | 254° |
| 2026-04-25 00:55 | -25.04914 | -53.45760 | 30120 ft | 433 kts | 254° |
| 2026-04-25 00:55 | -25.05860 | -53.48899 | 29345 ft | 429 kts | 254° |
| 2026-04-25 00:55 | -25.06794 | -53.52005 | 28571 ft | 424 kts | 254° |
| 2026-04-25 00:55 | -25.07717 | -53.55074 | 27807 ft | 420 kts | 253° |
| 2026-04-25 00:56 | -25.08630 | -53.58115 | 27048 ft | 415 kts | 253° |
| 2026-04-25 00:56 | -25.09521 | -53.61084 | 26310 ft | 411 kts | 253° |
| 2026-04-25 00:56 | -25.10413 | -53.64061 | 25565 ft | 406 kts | 253° |
| 2026-04-25 00:56 | -25.11293 | -53.67000 | 24817 ft | 402 kts | 253° |
| 2026-04-25 00:57 | -25.12164 | -53.69913 | 24086 ft | 397 kts | 253° |
| 2026-04-25 00:57 | -25.13025 | -53.72792 | 23343 ft | 393 kts | 253° |
| 2026-04-25 00:57 | -25.13875 | -53.75641 | 22617 ft | 389 kts | 253° |
| 2026-04-25 00:57 | -25.14716 | -53.78460 | 21895 ft | 385 kts | 253° |
| 2026-04-25 00:58 | -25.15550 | -53.81256 | 21168 ft | 382 kts | 254° |
| 2026-04-25 00:58 | -25.16366 | -53.83993 | 20463 ft | 379 kts | 254° |
| 2026-04-25 00:58 | -25.17183 | -53.86738 | 19746 ft | 375 kts | 254° |
| 2026-04-25 00:58 | -25.17995 | -53.89463 | 19036 ft | 372 kts | 254° |
| 2026-04-25 00:59 | -25.18799 | -53.92167 | 18324 ft | 369 kts | 254° |
| 2026-04-25 00:59 | -25.19596 | -53.94850 | 17613 ft | 367 kts | 254° |
| 2026-04-25 00:59 | -25.20387 | -53.97513 | 16907 ft | 364 kts | 254° |
| 2026-04-25 00:59 | -25.21174 | -54.00165 | 16203 ft | 362 kts | 253° |
| 2026-04-25 01:00 | -25.21953 | -54.02796 | 15641 ft | 358 kts | 253° |
| 2026-04-25 01:00 | -25.22720 | -54.05383 | 15205 ft | 354 kts | 253° |
| 2026-04-25 01:00 | -25.23471 | -54.07921 | 14587 ft | 350 kts | 253° |
| 2026-04-25 01:00 | -25.24225 | -54.10471 | 13909 ft | 348 kts | 253° |
| 2026-04-25 01:01 | -25.24975 | -54.13008 | 13229 ft | 347 kts | 253° |
| 2026-04-25 01:01 | -25.25721 | -54.15534 | 12536 ft | 346 kts | 253° |
| 2026-04-25 01:01 | -25.26464 | -54.18054 | 11827 ft | 345 kts | 253° |
| 2026-04-25 01:01 | -25.27206 | -54.20569 | 11119 ft | 343 kts | 253° |
| 2026-04-25 01:02 | -25.27946 | -54.23081 | 10597 ft | 342 kts | 253° |
| 2026-04-25 01:02 | -25.28674 | -54.25545 | 10374 ft | 331 kts | 253° |
| 2026-04-25 01:02 | -25.29361 | -54.27876 | 10217 ft | 316 kts | 253° |
| 2026-04-25 01:02 | -25.30025 | -54.30133 | 10067 ft | 303 kts | 253° |
| 2026-04-25 01:03 | -25.30666 | -54.32313 | 9748 ft | 296 kts | 253° |
| 2026-04-25 01:03 | -25.31299 | -54.34469 | 9325 ft | 294 kts | 253° |
| 2026-04-25 01:03 | -25.31930 | -54.36619 | 8877 ft | 294 kts | 254° |
| 2026-04-25 01:03 | -25.32561 | -54.38771 | 8404 ft | 294 kts | 254° |
| 2026-04-25 01:04 | -25.33190 | -54.40920 | 7933 ft | 294 kts | 253° |
| 2026-04-25 01:04 | -25.33819 | -54.43070 | 7460 ft | 294 kts | 253° |
| 2026-04-25 01:04 | -25.34447 | -54.45215 | 6995 ft | 293 kts | 253° |
| 2026-04-25 01:04 | -25.35067 | -54.47327 | 6527 ft | 292 kts | 253° |
| 2026-04-25 01:05 | -25.35693 | -54.49463 | 6051 ft | 292 kts | 253° |
| 2026-04-25 01:05 | -25.36314 | -54.51590 | 5613 ft | 289 kts | 253° |
| 2026-04-25 01:05 | -25.36928 | -54.53691 | 5188 ft | 285 kts | 253° |
| 2026-04-25 01:05 | -25.37519 | -54.55718 | 4781 ft | 276 kts | 253° |
| 2026-04-25 01:06 | -25.38101 | -54.57700 | 4647 ft | 264 kts | 251° |
| 2026-04-25 01:06 | -25.39047 | -54.59385 | 4512 ft | 256 kts | 225° |
| 2026-04-25 01:06 | -25.40476 | -54.60443 | 4446 ft | 240 kts | 205° |
| 2026-04-25 01:06 | -25.41960 | -54.61090 | 4337 ft | 226 kts | 200° |
| 2026-04-25 01:07 | -25.43393 | -54.61659 | 4218 ft | 212 kts | 201° |
| 2026-04-25 01:07 | -25.44736 | -54.62198 | 4112 ft | 199 kts | 200° |
| 2026-04-25 01:07 | -25.46000 | -54.62711 | 3955 ft | 191 kts | 200° |
| 2026-04-25 01:07 | -25.47254 | -54.63101 | 3780 ft | 186 kts | 181° |
| 2026-04-25 01:08 | -25.48463 | -54.62759 | 3567 ft | 177 kts | 147° |
| 2026-04-25 01:08 | -25.49321 | -54.61843 | 3393 ft | 169 kts | 131° |
| 2026-04-25 01:08 | -25.50118 | -54.60898 | 3264 ft | 168 kts | 133° |
| 2026-04-25 01:08 | -25.50894 | -54.59934 | 3047 ft | 170 kts | 131° |
| 2026-04-25 01:09 | -25.51658 | -54.58956 | 2829 ft | 165 kts | 130° |
| 2026-04-25 01:09 | -25.52383 | -54.58022 | 2590 ft | 157 kts | 130° |
| 2026-04-25 01:09 | -25.53080 | -54.57121 | 2404 ft | 154 kts | 130° |
| 2026-04-25 01:09 | -25.53785 | -54.56211 | 2211 ft | 156 kts | 129° |
| 2026-04-25 01:10 | -25.54491 | -54.55296 | 1999 ft | 156 kts | 130° |
| 2026-04-25 01:10 | -25.55192 | -54.54393 | 1781 ft | 153 kts | 128° |
| 2026-04-25 01:10 | -25.55880 | -54.53500 | 1635 ft | 151 kts | 129° |
| 2026-04-25 01:10 | -25.56551 | -54.52640 | 1386 ft | 142 kts | 129° |
| 2026-04-25 01:11 | -25.57186 | -54.51813 | 1210 ft | 140 kts | 128° |
| 2026-04-25 01:11 | -25.57819 | -54.51008 | 1052 ft | 136 kts | 129° |
| 2026-04-25 01:11 | -25.58428 | -54.50212 | 929 ft | 135 kts | 131° |
| 2026-04-25 01:11 | -25.59040 | -54.49432 | 781 ft | 132 kts | 131° |
| 2026-04-25 01:12 | -25.59461 | -54.48898 | 768 ft | 27 kts | 150° |
| 2026-04-25 01:12 | -25.59556 | -54.48922 | 767 ft | 12 kts | 156° |
| 2026-04-25 01:12 | -25.59603 | -54.48867 | 766 ft | 9 kts | 131° |
| 2026-04-25 01:12 | -25.59639 | -54.48821 | 766 ft | 0 kts | 131° |
| 2026-04-25 01:13 | -25.59642 | -54.48818 | 766 ft | 3 kts | 131° |
| 2026-04-25 01:13 | -25.59678 | -54.48828 | 766 ft | 7 kts | 220° |
| 2026-04-25 01:13 | -25.59704 | -54.48854 | 766 ft | 0 kts | 221° |